Time;durP1;ratioP1;P1;durP2;ratioP2;P2;SDS_P1;SDS_P2;PMS_P1;PMS_P2;Temp;Humidity;BMP_temperature;BMP_pressure;BME280_temperature;BME280_humidity;BME280_pressure;Samples;Min_cycle;Max_cycle;Signal;HPM_P1;HPM_P2
2023/11/04 00:00:53;;;;;;;20.60;6.40;;;;;;;22.89;63.58;100353.80;106797;1257;25359;-51
2023/11/04 00:03:38;;;;;;;17.20;5.50;;;;;;;22.89;63.57;100357.16;106998;1256;25456;-52
2023/11/04 00:06:06;;;;;;;25.50;7.30;;;;;;;22.90;63.69;100357.46;106885;1260;25332;-52
2023/11/04 00:08:33;;;;;;;25.10;7.50;;;;;;;22.90;63.81;100360.26;107104;1257;25478;-52
2023/11/04 00:11:00;;;;;;;23.90;6.20;;;;;;;22.91;63.82;100350.49;107126;1254;25368;-55
2023/11/04 00:13:27;;;;;;;17.30;6.40;;;;;;;22.91;63.81;100348.71;106877;1257;25481;-52
2023/11/04 00:15:56;;;;;;;18.40;7.10;;;;;;;22.92;63.82;100343.13;106803;1263;25376;-52
2023/11/04 00:18:23;;;;;;;18.60;6.60;;;;;;;22.92;63.76;100334.67;106906;1254;22531;-52
2023/11/04 00:20:50;;;;;;;19.90;5.80;;;;;;;22.92;63.78;100326.83;106897;1257;23271;-52
2023/11/04 00:23:18;;;;;;;21.00;5.80;;;;;;;22.92;63.91;100318.52;106821;1253;22523;-53
2023/11/04 00:25:45;;;;;;;16.90;6.40;;;;;;;22.93;63.96;100317.91;106859;1256;22531;-52
2023/11/04 00:28:12;;;;;;;22.10;6.80;;;;;;;22.92;63.88;100314.86;106855;1257;25315;-52
2023/11/04 00:30:39;;;;;;;16.40;5.30;;;;;;;22.92;63.88;100311.27;106114;1251;1003800;-52
2023/11/04 00:33:07;;;;;;;19.80;6.30;;;;;;;22.93;63.79;100312.09;106984;1261;25327;-53
2023/11/04 00:35:34;;;;;;;18.80;7.50;;;;;;;22.92;63.79;100311.11;106747;1257;25346;-53
2023/11/04 00:38:01;;;;;;;23.30;8.20;;;;;;;22.90;63.79;100303.01;106908;1257;25512;-53
2023/11/04 00:40:28;;;;;;;20.20;6.40;;;;;;;22.88;63.93;100294.25;106830;1256;25445;-53
2023/11/04 00:42:55;;;;;;;16.10;5.90;;;;;;;22.84;63.92;100294.92;106982;1257;22526;-52
2023/11/04 00:45:22;;;;;;;21.00;6.30;;;;;;;22.86;63.92;100300.96;107138;1257;25468;-52
2023/11/04 00:47:50;;;;;;;17.50;6.40;;;;;;;22.80;64.13;100299.88;106991;1263;25359;-52
2023/11/04 00:50:17;;;;;;;18.30;6.60;;;;;;;22.68;64.47;100302.59;106985;1269;25430;-54
2023/11/04 00:52:48;;;;;;;16.70;6.40;;;;;;;22.64;64.75;100309.46;106712;1259;24272;-53
2023/11/04 00:55:17;;;;;;;20.00;7.00;;;;;;;22.62;64.86;100305.20;106847;1264;25558;-53
2023/11/04 00:57:44;;;;;;;18.90;5.90;;;;;;;22.61;65.04;100301.14;106622;1258;25315;-52
2023/11/04 01:00:11;;;;;;;20.50;7.30;;;;;;;22.62;65.06;100288.92;107124;1251;22537;-52
2023/11/04 01:02:39;;;;;;;20.20;7.10;;;;;;;22.64;65.03;100283.13;106968;1264;24176;-52
2023/11/04 01:05:07;;;;;;;24.40;7.60;;;;;;;22.65;65.06;100279.65;106159;1267;1003682;-52
2023/11/04 01:07:34;;;;;;;22.60;7.30;;;;;;;22.82;64.59;100283.14;106384;1251;1003808;-52
2023/11/04 01:10:02;;;;;;;20.60;6.90;;;;;;;22.94;64.12;100278.73;107084;1256;23868;-52
2023/11/04 01:12:29;;;;;;;21.20;7.00;;;;;;;23.06;63.90;100274.82;107066;1255;25375;-53
2023/11/04 01:14:56;;;;;;;21.00;7.20;;;;;;;23.06;63.85;100271.75;107116;1254;25397;-53
2023/11/04 01:17:23;;;;;;;19.80;6.80;;;;;;;22.93;64.26;100258.98;107194;1257;25340;-54
2023/11/04 01:19:51;;;;;;;16.30;6.60;;;;;;;22.99;64.14;100257.62;107067;1254;22540;-53
2023/11/04 01:22:18;;;;;;;22.80;7.50;;;;;;;23.11;63.76;100252.71;106725;1260;25366;-52
2023/11/04 01:24:45;;;;;;;29.80;7.60;;;;;;;23.12;63.90;100250.05;106801;1257;25440;-52
2023/11/04 01:27:12;;;;;;;16.40;6.80;;;;;;;23.14;63.80;100254.47;106797;1256;22632;-52
2023/11/04 01:29:39;;;;;;;20.30;6.40;;;;;;;23.16;63.57;100248.63;106992;1257;25414;-52
2023/11/04 01:32:06;;;;;;;20.70;6.60;;;;;;;23.18;63.68;100238.73;107010;1253;25369;-52
2023/11/04 01:34:33;;;;;;;21.70;7.90;;;;;;;23.19;63.53;100242.73;107163;1251;25344;-52
2023/11/04 01:37:01;;;;;;;19.40;8.10;;;;;;;23.17;63.48;100243.94;107071;1257;25321;-52
2023/11/04 01:39:28;;;;;;;18.60;6.60;;;;;;;23.12;63.67;100242.98;107025;1253;22565;-52
2023/11/04 01:41:55;;;;;;;17.00;6.10;;;;;;;23.13;63.58;100242.01;106981;1252;25331;-54
2023/11/04 01:44:23;;;;;;;13.30;6.00;;;;;;;23.14;63.48;100239.10;106834;1260;25331;-53
2023/11/04 01:46:50;;;;;;;19.60;7.70;;;;;;;22.99;63.95;100240.16;106942;1257;25439;-54
2023/11/04 01:49:17;;;;;;;24.60;6.80;;;;;;;23.08;63.62;100238.92;107113;1256;25377;-53
2023/11/04 01:51:44;;;;;;;23.70;7.40;;;;;;;23.08;63.65;100238.30;107075;1253;25331;-53
2023/11/04 01:54:11;;;;;;;24.50;7.30;;;;;;;23.01;63.89;100248.78;107173;1257;25337;-53
2023/11/04 01:56:39;;;;;;;18.70;6.80;;;;;;;23.12;63.57;100254.10;107104;1264;25430;-53
2023/11/04 01:59:07;;;;;;;19.10;7.40;;;;;;;23.05;63.75;100253.41;106742;1254;25503;-53
2023/11/04 02:01:34;;;;;;;18.50;7.20;;;;;;;22.96;64.11;100258.42;106594;1273;22523;-52
2023/11/04 02:04:02;;;;;;;22.80;7.80;;;;;;;23.10;63.67;100256.25;106723;1257;25309;-52
2023/11/04 02:06:29;;;;;;;20.90;6.60;;;;;;;23.10;63.64;100252.36;106852;1250;23889;-52
2023/11/04 02:08:57;;;;;;;22.70;7.20;;;;;;;22.97;64.10;100259.02;106798;1251;24334;-52
2023/11/04 02:11:25;;;;;;;21.40;6.70;;;;;;;23.13;63.69;100265.73;106732;1254;25341;-52
2023/11/04 02:13:52;;;;;;;17.10;6.30;;;;;;;23.16;63.55;100262.48;106598;1263;25396;-52
2023/11/04 02:16:18;;;;;;;15.30;6.80;;;;;;;23.16;63.69;100261.75;106347;1261;25353;-52
2023/11/04 02:18:46;;;;;;;20.70;6.80;;;;;;;23.15;63.67;100250.84;106819;1256;25648;-52
2023/11/04 02:21:13;;;;;;;24.60;8.30;;;;;;;23.15;63.78;100249.59;106834;1257;22523;-52
2023/11/04 02:23:41;;;;;;;22.60;7.80;;;;;;;23.15;63.75;100254.02;106945;1253;22624;-54
2023/11/04 02:26:08;;;;;;;18.50;7.00;;;;;;;23.16;63.72;100244.22;106660;1256;22636;-53
2023/11/04 02:28:35;;;;;;;22.00;7.50;;;;;;;23.16;63.80;100240.83;106596;1254;24379;-55
2023/11/04 02:31:03;;;;;;;21.30;7.60;;;;;;;23.16;63.86;100252.15;106723;1273;25354;-53
2023/11/04 02:33:30;;;;;;;21.20;7.30;;;;;;;23.15;63.87;100257.36;106860;1259;25353;-53
2023/11/04 02:35:57;;;;;;;20.00;7.40;;;;;;;23.14;64.00;100255.12;106802;1253;23930;-52
2023/11/04 02:38:24;;;;;;;23.70;6.90;;;;;;;23.15;64.00;100253.50;106641;1257;25343;-53
2023/11/04 02:40:51;;;;;;;23.50;7.10;;;;;;;23.15;63.96;100245.02;106529;1258;24359;-53
2023/11/04 02:43:18;;;;;;;24.50;7.70;;;;;;;23.15;64.11;100235.45;106548;1257;25359;-53
2023/11/04 02:45:45;;;;;;;22.00;8.10;;;;;;;23.09;64.23;100218.28;107038;1257;25449;-53
2023/11/04 02:48:12;;;;;;;23.30;6.60;;;;;;;23.01;64.60;100218.75;107180;1250;25360;-53
2023/11/04 02:50:40;;;;;;;15.10;6.40;;;;;;;23.14;64.16;100214.66;107182;1257;25343;-53
2023/11/04 02:53:07;;;;;;;20.00;7.00;;;;;;;23.16;64.00;100211.80;106933;1266;25340;-54
2023/11/04 02:55:34;;;;;;;24.60;8.40;;;;;;;23.17;64.23;100218.69;106759;1260;25364;-54
2023/11/04 02:58:01;;;;;;;27.00;7.70;;;;;;;23.17;64.12;100223.61;106752;1254;24192;-53
2023/11/04 03:00:29;;;;;;;19.60;8.20;;;;;;;23.17;64.17;100224.13;106787;1257;25359;-53
2023/11/04 03:02:56;;;;;;;19.30;7.30;;;;;;;23.08;64.47;100237.64;106816;1258;25408;-53
2023/11/04 03:05:23;;;;;;;20.60;7.10;;;;;;;23.11;64.51;100242.54;107146;1263;22624;-53
2023/11/04 03:08:01;;;;;;;30.50;7.70;;;;;;;23.08;64.65;100240.43;106877;1257;25427;-54
2023/11/04 03:10:28;;;;;;;28.20;8.10;;;;;;;23.03;64.91;100239.81;106653;1267;25350;-54
2023/11/04 03:12:55;;;;;;;18.10;7.30;;;;;;;23.01;64.95;100238.01;106848;1254;25332;-54
2023/11/04 03:15:22;;;;;;;25.30;7.30;;;;;;;23.17;64.55;100237.20;106834;1253;25322;-52
2023/11/04 03:17:49;;;;;;;18.90;6.90;;;;;;;23.21;64.43;100234.05;106727;1257;25398;-53
2023/11/04 03:20:16;;;;;;;26.30;9.20;;;;;;;23.23;64.35;100234.61;107063;1263;25318;-53
2023/11/04 03:22:44;;;;;;;16.80;7.70;;;;;;;23.10;64.59;100229.88;107061;1254;25399;-53
2023/11/04 03:25:12;;;;;;;19.90;7.00;;;;;;;23.13;64.69;100227.67;106852;1257;23347;-53
2023/11/04 03:27:39;;;;;;;21.50;8.00;;;;;;;23.15;64.66;100224.30;106905;1256;22817;-53
2023/11/04 03:30:08;;;;;;;19.10;7.10;;;;;;;23.16;64.57;100224.77;106821;1267;24041;-53
2023/11/04 03:32:35;;;;;;;23.90;8.20;;;;;;;23.15;64.55;100231.52;106635;1266;22656;-52
2023/11/04 03:35:02;;;;;;;20.30;7.90;;;;;;;23.24;64.41;100232.25;106842;1257;25331;-53
2023/11/04 03:37:29;;;;;;;25.30;9.00;;;;;;;23.46;63.45;100233.79;106857;1266;25331;-54
2023/11/04 03:39:58;;;;;;;24.30;8.10;;;;;;;23.44;63.68;100235.91;106900;1254;25338;-53
2023/11/04 03:42:25;;;;;;;29.40;8.10;;;;;;;23.42;63.67;100239.91;106827;1256;23824;-53
2023/11/04 03:44:52;;;;;;;25.60;8.20;;;;;;;23.39;63.80;100240.36;106909;1257;25351;-52
2023/11/04 03:47:19;;;;;;;23.90;8.70;;;;;;;23.22;64.19;100244.92;107047;1266;25356;-53
2023/11/04 03:49:46;;;;;;;20.60;8.70;;;;;;;23.44;63.45;100246.12;107136;1257;25360;-52
2023/11/04 03:52:13;;;;;;;23.20;8.30;;;;;;;23.70;62.63;100245.89;107024;1257;25439;-54
2023/11/04 03:54:40;;;;;;;24.10;8.80;;;;;;;23.49;63.26;100232.30;106683;1266;23893;-54
2023/11/04 03:57:07;;;;;;;32.10;8.10;;;;;;;23.29;63.86;100217.67;106755;1257;25239;-54
2023/11/04 03:59:34;;;;;;;24.30;7.40;;;;;;;23.20;64.25;100219.23;106862;1260;25341;-54
2023/11/04 04:02:01;;;;;;;24.70;8.90;;;;;;;23.17;64.33;100226.07;106742;1255;25399;-53
2023/11/04 04:04:28;;;;;;;23.70;7.80;;;;;;;23.15;64.37;100231.21;106918;1257;25350;-54
2023/11/04 04:06:56;;;;;;;25.00;9.90;;;;;;;23.16;64.45;100233.06;106720;1264;25356;-53
2023/11/04 04:09:23;;;;;;;24.30;8.40;;;;;;;23.16;64.34;100243.90;106897;1256;23864;-53
2023/11/04 04:11:50;;;;;;;28.30;9.30;;;;;;;23.15;64.42;100238.44;106537;1260;25326;-53
2023/11/04 04:14:17;;;;;;;25.20;8.50;;;;;;;23.15;64.37;100234.00;106949;1257;25322;-53
2023/11/04 04:16:45;;;;;;;28.30;8.60;;;;;;;23.18;64.51;100227.45;106641;1267;25359;-53
2023/11/04 04:19:12;;;;;;;24.00;7.90;;;;;;;23.20;64.27;100223.48;107098;1256;25481;-54
2023/11/04 04:21:40;;;;;;;22.70;8.30;;;;;;;23.21;64.23;100221.86;107063;1253;25335;-53
2023/11/04 04:24:08;;;;;;;24.80;8.70;;;;;;;23.20;64.38;100226.52;107146;1263;25389;-53
2023/11/04 04:26:35;;;;;;;25.80;8.50;;;;;;;23.20;64.40;100227.63;107107;1260;24270;-53
2023/11/04 04:29:02;;;;;;;26.70;10.50;;;;;;;23.20;64.23;100224.41;106814;1256;24366;-53
2023/11/04 04:31:29;;;;;;;25.20;7.70;;;;;;;23.19;64.41;100224.85;107109;1250;25318;-53
2023/11/04 04:33:56;;;;;;;22.60;8.70;;;;;;;23.17;64.45;100232.09;106902;1254;25384;-54
2023/11/04 04:36:23;;;;;;;24.60;8.60;;;;;;;23.16;64.50;100230.55;106696;1263;25328;-55
2023/11/04 04:38:51;;;;;;;21.10;7.60;;;;;;;23.16;64.54;100233.77;106686;1270;25335;-54
2023/11/04 04:41:18;;;;;;;21.20;8.40;;;;;;;23.15;64.56;100232.11;106958;1256;25392;-56
2023/11/04 04:43:45;;;;;;;30.30;9.70;;;;;;;23.15;64.43;100229.11;106993;1253;22526;-54
2023/11/04 04:46:12;;;;;;;26.00;8.10;;;;;;;23.13;64.44;100217.42;106991;1254;25404;-53
2023/11/04 04:48:39;;;;;;;27.80;9.10;;;;;;;23.12;64.53;100208.58;106810;1257;25376;-53
2023/11/04 04:51:07;;;;;;;19.50;8.10;;;;;;;23.12;64.52;100217.11;106900;1263;23871;-53
2023/11/04 04:53:36;;;;;;;24.40;8.70;;;;;;;23.12;64.61;100227.20;106792;1257;23889;-53
2023/11/04 04:56:03;;;;;;;25.10;8.50;;;;;;;23.15;64.45;100224.31;106862;1253;25546;-53
2023/11/04 04:58:30;;;;;;;24.70;9.00;;;;;;;23.15;64.48;100210.86;106841;1251;25399;-53
2023/11/04 05:00:57;;;;;;;20.40;8.30;;;;;;;23.15;64.31;100212.48;106815;1263;25351;-55
2023/11/04 05:03:25;;;;;;;22.40;8.30;;;;;;;23.14;64.43;100215.83;107019;1257;25341;-54
2023/11/04 05:05:53;;;;;;;24.50;8.20;;;;;;;23.14;64.45;100210.79;107117;1254;25375;-53
2023/11/04 05:08:20;;;;;;;25.90;7.40;;;;;;;23.13;64.44;100201.61;107065;1270;25797;-53
2023/11/04 05:10:47;;;;;;;21.80;7.50;;;;;;;23.14;64.54;100204.22;107204;1250;25449;-53
2023/11/04 05:13:14;;;;;;;21.70;7.30;;;;;;;23.14;64.39;100219.77;107066;1254;25392;-53
2023/11/04 05:15:41;;;;;;;22.60;7.80;;;;;;;23.14;64.54;100223.83;107103;1254;25481;-53
2023/11/04 05:18:09;;;;;;;23.00;8.30;;;;;;;23.12;64.66;100225.96;107064;1257;23212;-54
2023/11/04 05:20:36;;;;;;;24.20;8.30;;;;;;;23.12;64.70;100224.54;106762;1250;25415;-56
2023/11/04 05:23:02;;;;;;;21.10;7.70;;;;;;;23.13;64.73;100233.66;106726;1263;25332;-54
2023/11/04 05:25:29;;;;;;;20.50;7.40;;;;;;;23.14;64.69;100243.86;106866;1256;25327;-54
2023/11/04 05:27:58;;;;;;;22.50;7.10;;;;;;;23.15;64.81;100244.83;106955;1254;25405;-54
2023/11/04 05:30:25;;;;;;;20.80;7.10;;;;;;;23.13;64.89;100234.33;106953;1257;23897;-54
2023/11/04 05:32:52;;;;;;;28.00;8.60;;;;;;;23.15;65.05;100228.58;106849;1253;25226;-55
2023/11/04 05:35:20;;;;;;;20.80;8.30;;;;;;;23.16;64.86;100228.46;106816;1261;25514;-53
2023/11/04 05:37:47;;;;;;;20.60;7.90;;;;;;;23.17;65.02;100224.80;106748;1253;25347;-54
2023/11/04 05:40:14;;;;;;;28.80;8.40;;;;;;;23.19;64.84;100225.77;106615;1256;25349;-53
2023/11/04 05:42:41;;;;;;;25.00;8.20;;;;;;;23.20;64.96;100219.29;106311;1256;25475;-54
2023/11/04 05:45:09;;;;;;;22.90;7.00;;;;;;;23.22;64.89;100208.51;106821;1256;22547;-53
2023/11/04 05:47:36;;;;;;;22.70;8.60;;;;;;;23.24;65.00;100212.95;106906;1254;22532;-53
2023/11/04 05:50:03;;;;;;;19.70;7.10;;;;;;;23.26;65.00;100224.27;106858;1257;25352;-53
2023/11/04 05:52:31;;;;;;;24.30;8.30;;;;;;;23.28;65.06;100229.01;106950;1254;25474;-53
2023/11/04 05:54:58;;;;;;;20.00;6.90;;;;;;;23.31;64.99;100231.47;106964;1257;25359;-53
2023/11/04 05:57:25;;;;;;;28.30;7.90;;;;;;;23.33;64.95;100231.33;106793;1269;22567;-53
2023/11/04 05:59:52;;;;;;;21.70;7.20;;;;;;;23.37;65.03;100242.33;106911;1254;24497;-53
2023/11/04 06:02:19;;;;;;;21.30;7.40;;;;;;;23.39;65.01;100245.71;107093;1258;25322;-53
2023/11/04 06:04:46;;;;;;;19.30;7.70;;;;;;;23.42;65.01;100248.14;107015;1256;25321;-53
2023/11/04 06:07:13;;;;;;;20.40;7.20;;;;;;;23.45;64.96;100252.98;107074;1253;24326;-53
2023/11/04 06:09:41;;;;;;;24.20;7.70;;;;;;;23.48;64.97;100251.50;106767;1256;25401;-52
2023/11/04 06:12:08;;;;;;;18.80;6.60;;;;;;;23.51;64.71;100237.77;106786;1259;25353;-52
2023/11/04 06:14:35;;;;;;;15.50;6.60;;;;;;;23.52;64.77;100234.83;106966;1257;25389;-52
2023/11/04 06:17:03;;;;;;;20.30;7.00;;;;;;;23.55;64.45;100245.62;107124;1257;25332;-52
2023/11/04 06:19:31;;;;;;;24.40;6.80;;;;;;;23.57;64.17;100255.30;106829;1259;25443;-52
2023/11/04 06:21:58;;;;;;;19.30;7.40;;;;;;;23.60;63.99;100257.21;107086;1253;25230;-53
2023/11/04 06:24:25;;;;;;;18.40;6.80;;;;;;;23.63;63.91;100248.95;106895;1255;25571;-52
2023/11/04 06:26:55;;;;;;;20.20;6.20;;;;;;;23.68;63.89;100242.32;106952;1257;25334;-52
2023/11/04 06:29:22;;;;;;;24.90;6.40;;;;;;;23.72;63.93;100236.48;107174;1254;22561;-52
2023/11/04 06:31:49;;;;;;;19.50;8.00;;;;;;;23.77;63.80;100227.08;106790;1274;25328;-52
2023/11/04 06:34:16;;;;;;;17.50;6.40;;;;;;;23.81;63.72;100216.27;106884;1269;25328;-52
2023/11/04 06:36:43;;;;;;;19.90;6.40;;;;;;;23.85;63.59;100216.27;106938;1256;25362;-53
2023/11/04 06:39:10;;;;;;;19.60;6.40;;;;;;;23.88;63.63;100218.66;106654;1267;25399;-52
2023/11/04 06:41:38;;;;;;;20.30;6.90;;;;;;;23.92;63.55;100221.17;106956;1257;25359;-51
2023/11/04 06:44:05;;;;;;;17.70;5.60;;;;;;;23.96;63.46;100221.31;106684;1259;23334;-52
2023/11/04 06:46:32;;;;;;;22.00;8.10;;;;;;;24.03;63.29;100218.27;106782;1251;25268;-51
2023/11/04 06:48:59;;;;;;;18.50;6.20;;;;;;;24.08;63.17;100218.33;106783;1254;25468;-52
2023/11/04 06:51:27;;;;;;;21.40;5.80;;;;;;;24.15;63.13;100218.09;107080;1256;25353;-51
2023/11/04 06:53:56;;;;;;;20.50;5.90;;;;;;;24.21;62.99;100214.54;106920;1259;25404;-52
2023/11/04 06:56:24;;;;;;;26.10;7.80;;;;;;;24.29;62.68;100208.98;106894;1267;25341;-51
2023/11/04 06:58:52;;;;;;;19.20;6.30;;;;;;;24.35;62.39;100203.99;107207;1257;22627;-52
2023/11/04 07:01:19;;;;;;;17.20;5.60;;;;;;;24.40;61.95;100200.73;106890;1256;25398;-51
2023/11/04 07:03:47;;;;;;;20.70;7.20;;;;;;;24.44;61.59;100196.81;107133;1254;25350;-51
2023/11/04 07:06:14;;;;;;;16.80;5.10;;;;;;;24.46;61.37;100199.78;106824;1274;25327;-51
2023/11/04 07:08:42;;;;;;;17.50;5.50;;;;;;;24.48;61.12;100205.47;107039;1254;25359;-50
2023/11/04 07:11:13;;;;;;;16.70;5.90;;;;;;;24.49;60.95;100213.34;107171;1255;25437;-51
2023/11/04 07:13:43;;;;;;;18.60;6.20;;;;;;;24.50;60.71;100218.10;107117;1260;25292;-51
2023/11/04 07:16:11;;;;;;;17.20;5.60;;;;;;;24.51;60.79;100225.27;107145;1253;25383;-50
2023/11/04 07:18:42;;;;;;;18.20;5.70;;;;;;;24.52;60.60;100225.55;107208;1258;25331;-53
2023/11/04 07:21:09;;;;;;;22.60;5.60;;;;;;;24.52;60.49;100240.09;106538;1268;25359;-50
2023/11/04 07:23:36;;;;;;;19.10;5.90;;;;;;;24.51;60.41;100237.83;107099;1256;22600;-51
2023/11/04 07:26:04;;;;;;;18.70;5.30;;;;;;;24.51;60.41;100229.67;107169;1254;23269;-51
2023/11/04 07:28:35;;;;;;;17.40;5.30;;;;;;;24.52;60.57;100222.17;107034;1251;23921;-50
2023/11/04 07:31:04;;;;;;;15.00;4.90;;;;;;;24.52;60.56;100227.47;107038;1266;22571;-51
2023/11/04 07:33:31;;;;;;;16.90;5.60;;;;;;;24.53;60.58;100232.67;107452;1254;22528;-53
2023/11/04 07:35:58;;;;;;;19.10;5.30;;;;;;;24.56;60.65;100239.33;107390;1260;22535;-52
2023/11/04 07:38:25;;;;;;;20.30;5.30;;;;;;;24.61;60.65;100241.02;106845;1269;25480;-52
2023/11/04 07:40:52;;;;;;;19.10;5.70;;;;;;;24.66;60.58;100242.49;107008;1254;25369;-52
2023/11/04 07:43:19;;;;;;;15.30;5.00;;;;;;;24.72;60.44;100246.11;107204;1256;25356;-51
2023/11/04 07:45:47;;;;;;;17.00;4.80;;;;;;;24.78;60.14;100248.45;107105;1257;25379;-51
2023/11/04 07:48:14;;;;;;;19.50;6.10;;;;;;;24.83;59.98;100248.27;106782;1258;25356;-51
2023/11/04 07:50:41;;;;;;;15.70;6.00;;;;;;;24.89;59.77;100247.05;107077;1255;23403;-52
2023/11/04 07:53:08;;;;;;;20.60;5.40;;;;;;;24.94;59.60;100246.60;107289;1253;25446;-51
2023/11/04 07:55:37;;;;;;;15.30;5.10;;;;;;;24.99;59.35;100253.58;107374;1256;25430;-51
2023/11/04 07:58:04;;;;;;;21.60;5.70;;;;;;;25.03;59.22;100265.09;107351;1254;25388;-52
2023/11/04 08:00:31;;;;;;;20.90;5.50;;;;;;;25.07;59.00;100268.84;106998;1263;24234;-52
2023/11/04 08:02:58;;;;;;;18.60;5.40;;;;;;;25.10;58.89;100268.39;107264;1251;23878;-52
2023/11/04 08:05:29;;;;;;;18.80;6.50;;;;;;;25.11;58.68;100271.30;107158;1253;25481;-52
2023/11/04 08:07:57;;;;;;;16.70;5.20;;;;;;;25.13;58.62;100278.41;107174;1257;25315;-52
2023/11/04 08:10:25;;;;;;;18.60;5.30;;;;;;;25.15;58.55;100288.05;106704;1260;25481;-53
2023/11/04 08:12:52;;;;;;;19.20;6.70;;;;;;;25.15;58.58;100293.88;107226;1256;25100;-53
2023/11/04 08:15:19;;;;;;;18.30;8.80;;;;;;;25.16;58.75;100288.29;107337;1257;23392;-51
2023/11/04 08:17:47;;;;;;;19.60;9.00;;;;;;;25.18;58.64;100299.61;107142;1254;25331;-53
2023/11/04 08:20:14;;;;;;;18.10;8.30;;;;;;;25.22;58.58;100303.14;107206;1251;25227;-52
2023/11/04 08:22:41;;;;;;;17.20;6.30;;;;;;;25.27;58.42;100308.40;107669;1255;23392;-53
2023/11/04 08:25:08;;;;;;;16.30;6.10;;;;;;;25.33;58.36;100308.23;106918;1263;24245;-52
2023/11/04 08:27:35;;;;;;;19.70;5.90;;;;;;;25.38;58.04;100298.89;107244;1257;25481;-53
2023/11/04 08:30:04;;;;;;;17.10;5.40;;;;;;;25.41;57.89;100288.64;107042;1256;22542;-53
2023/11/04 08:32:32;;;;;;;18.40;5.00;;;;;;;25.44;57.70;100284.61;106945;1254;24265;-51
2023/11/04 08:35:00;;;;;;;18.60;5.10;;;;;;;25.47;57.52;100287.73;106736;1270;22541;-52
2023/11/04 08:37:27;;;;;;;15.50;4.60;;;;;;;25.49;57.05;100279.24;107426;1255;25345;-52
2023/11/04 08:39:54;;;;;;;16.20;5.40;;;;;;;25.50;56.90;100275.23;107282;1257;25408;-52
2023/11/04 08:42:22;;;;;;;13.80;4.70;;;;;;;25.50;56.64;100275.23;107307;1257;25331;-51
2023/11/04 08:44:50;;;;;;;16.30;4.20;;;;;;;25.50;56.33;100270.98;107154;1256;25783;-52
2023/11/04 08:47:17;;;;;;;14.70;4.60;;;;;;;25.50;56.28;100264.06;106907;1257;25327;-50
2023/11/04 08:49:44;;;;;;;15.10;4.70;;;;;;;25.50;56.13;100247.35;107096;1259;25408;-53
2023/11/04 08:52:11;;;;;;;14.50;5.00;;;;;;;25.49;55.89;100243.17;107197;1256;25347;-51
2023/11/04 08:54:42;;;;;;;13.60;4.10;;;;;;;25.49;55.78;100247.60;106995;1256;22539;-51
2023/11/04 08:57:10;;;;;;;16.10;4.70;;;;;;;25.48;55.76;100239.70;107242;1256;25359;-51
2023/11/04 08:59:37;;;;;;;14.70;4.40;;;;;;;25.48;55.93;100233.31;107073;1257;24267;-51
2023/11/04 09:02:05;;;;;;;20.00;4.40;;;;;;;25.49;55.90;100222.96;107011;1256;26489;-51
2023/11/04 09:04:32;;;;;;;12.50;4.30;;;;;;;25.49;55.78;100219.00;106970;1256;25408;-51
2023/11/04 09:06:59;;;;;;;18.00;4.90;;;;;;;25.51;55.71;100218.13;107228;1253;24236;-51
2023/11/04 09:09:27;;;;;;;16.90;4.30;;;;;;;25.53;55.58;100213.31;107726;1263;23185;-51
2023/11/04 09:11:55;;;;;;;15.60;4.50;;;;;;;25.55;55.48;100210.48;107469;1259;25331;-51
2023/11/04 09:14:23;;;;;;;19.40;5.30;;;;;;;25.60;55.44;100208.34;107371;1260;26621;-51
2023/11/04 09:16:50;;;;;;;14.80;4.50;;;;;;;25.59;55.42;100211.55;107475;1256;22534;-51
2023/11/04 09:19:17;;;;;;;12.50;4.90;;;;;;;25.57;55.60;100209.95;107360;1257;26624;-51
2023/11/04 09:21:45;;;;;;;16.40;4.50;;;;;;;25.57;55.74;100211.73;107488;1256;25551;-52
2023/11/04 09:24:13;;;;;;;13.00;3.30;;;;;;;25.58;55.77;100216.98;107786;1252;22531;-52
2023/11/04 09:26:40;;;;;;;18.60;5.00;;;;;;;25.58;55.68;100206.63;107490;1256;25315;-51
2023/11/04 09:29:07;;;;;;;14.40;4.00;;;;;;;25.59;55.60;100191.47;107428;1260;24347;-51
2023/11/04 09:31:36;;;;;;;18.00;4.50;;;;;;;25.60;55.47;100175.39;107446;1257;22524;-52
2023/11/04 09:34:04;;;;;;;17.20;4.90;;;;;;;25.58;55.50;100164.17;107592;1264;22521;-51
2023/11/04 09:36:32;;;;;;;13.70;3.90;;;;;;;25.57;55.86;100166.94;107718;1253;24268;-51
2023/11/04 09:38:59;;;;;;;15.40;4.60;;;;;;;25.59;55.95;100164.81;107299;1257;25359;-52
2023/11/04 09:41:26;;;;;;;13.60;5.10;;;;;;;25.61;56.11;100153.06;107420;1251;341739;-51
2023/11/04 09:43:53;;;;;;;24.90;5.50;;;;;;;25.63;55.84;100153.73;107519;1262;25180;-52
2023/11/04 09:46:22;;;;;;;13.40;3.70;;;;;;;25.66;55.89;100155.77;107404;1254;25382;-52
2023/11/04 09:48:49;;;;;;;13.80;3.90;;;;;;;25.68;55.80;100151.87;107249;1256;25328;-52
2023/11/04 09:51:17;;;;;;;10.20;3.80;;;;;;;25.69;55.71;100152.69;107548;1256;25404;-54
2023/11/04 09:53:58;;;;;;;16.90;4.90;;;;;;;25.71;55.65;100153.71;107104;1260;25558;-52
2023/11/04 09:56:25;;;;;;;11.50;3.80;;;;;;;25.72;55.84;100163.70;107565;1251;22492;-51
2023/11/04 09:58:52;;;;;;;14.90;4.50;;;;;;;25.75;55.74;100171.80;107435;1258;25515;-51
2023/11/04 10:01:19;;;;;;;9.10;3.50;;;;;;;25.76;55.78;100167.39;107110;1259;25324;-51
2023/11/04 10:03:47;;;;;;;12.40;3.70;;;;;;;25.78;55.57;100163.31;107386;1260;25507;-53
2023/11/04 10:06:15;;;;;;;13.20;4.50;;;;;;;25.79;55.45;100157.77;107379;1258;22538;-51
2023/11/04 10:08:43;;;;;;;11.50;3.60;;;;;;;25.80;55.40;100151.42;107424;1254;22794;-51
2023/11/04 10:11:10;;;;;;;14.90;4.10;;;;;;;25.80;55.31;100141.06;107143;1256;23539;-52
2023/11/04 10:13:39;;;;;;;12.40;3.70;;;;;;;25.80;55.09;100139.66;107559;1257;25312;-51
2023/11/04 10:16:06;;;;;;;14.50;3.60;;;;;;;25.79;55.03;100137.34;107295;1264;22529;-52
2023/11/04 10:18:34;;;;;;;18.20;4.70;;;;;;;25.76;54.90;100130.64;107027;1258;25312;-52
2023/11/04 10:21:01;;;;;;;11.30;4.20;;;;;;;25.75;54.94;100130.42;107314;1262;25404;-51
2023/11/04 10:23:30;;;;;;;19.00;4.90;;;;;;;25.72;54.96;100136.73;107071;1268;25328;-53
2023/11/04 10:26:18;;;;;;;13.60;3.90;;;;;;;25.70;54.85;100143.54;106960;1262;25673;-54
2023/11/04 10:28:45;;;;;;;16.20;3.80;;;;;;;25.67;54.94;100137.03;107703;1259;25323;-52
2023/11/04 10:31:12;;;;;;;13.70;4.00;;;;;;;25.65;55.13;100139.70;107016;1261;25347;-54
2023/11/04 10:33:39;;;;;;;9.70;3.20;;;;;;;25.62;55.24;100137.30;107161;1262;25492;-53
2023/11/04 10:36:12;;;;;;;12.60;4.20;;;;;;;25.61;55.46;100132.48;107138;1273;22733;-53
2023/11/04 10:38:42;;;;;;;12.80;5.10;;;;;;;25.58;55.45;100139.47;107170;1273;22533;-53
2023/11/04 10:41:10;;;;;;;15.30;4.00;;;;;;;25.57;55.48;100134.64;107190;1272;22522;-52
2023/11/04 10:43:43;;;;;;;15.20;4.20;;;;;;;25.53;55.49;100130.91;106788;1275;25520;-51
2023/11/04 10:46:14;;;;;;;13.10;4.30;;;;;;;25.49;55.66;100127.20;106575;1272;22686;-52
2023/11/04 10:48:52;;;;;;;;;;;;;;;25.45;55.71;100106.92;106638;1273;22507;-51
2023/11/04 10:51:24;;;;;;;17.80;5.60;;;;;;;25.42;55.83;100098.20;106563;1273;22694;-51
2023/11/04 10:53:55;;;;;;;16.00;3.90;;;;;;;25.40;56.05;100090.91;106857;1261;25443;-52
2023/11/04 10:56:25;;;;;;;16.30;4.50;;;;;;;25.40;56.13;100086.98;106980;1273;25440;-51
2023/11/04 10:59:09;;;;;;;14.20;4.50;;;;;;;25.41;56.11;100090.51;107010;1263;25394;-51
2023/11/04 11:01:38;;;;;;;16.90;4.60;;;;;;;25.41;56.44;100094.59;106892;1259;24322;-52
2023/11/04 11:04:06;;;;;;;16.40;4.80;;;;;;;25.40;56.53;100096.58;106609;1269;25408;-51
2023/11/04 11:06:34;;;;;;;16.80;4.80;;;;;;;25.40;56.62;100091.44;106695;1262;22144;-51
2023/11/04 11:09:04;;;;;;;15.30;5.40;;;;;;;25.40;56.85;100084.17;107015;1262;24012;-51
2023/11/04 11:11:55;;;;;;;21.40;5.00;;;;;;;25.39;56.92;100089.26;107501;1266;24527;-51